Terminal Aerodrome Forecast
Issued by NWS

Current Version | Previous Version | Text Only | Print | Product List | Glossary Off
Versions: 1 2 3 4 5 6 7 8 9 10 11 12 13 14 15 16 17 18 19 20

000
FTUS41 KPBZ 162334
TAFMGW
TAF
KMGW 162334Z 1700/1724 26010G18KT P6SM VCSH OVC030
      TEMPO 1700/1703 4SM -SHRASN OVC025
     FM170700 25011G19KT 5SM -SHSN OVC025
     FM171700 25012G24KT P6SM VCSH OVC025=

USA.gov is the U.S. government's official web portal to all federal, state and local government web resources and services.